This is the latest recevied weather packets stored in our database for station/object KC3WWU. If no packets are shown the sender has not sent any weather packets the latest 10 day(s).
| Time | Temp. | Humidity | Pressure | Rain* | Wind** | Luminosity | Snow |
|---|---|---|---|---|---|---|---|
| 1778032425 | 15.56° C | 72% | 1007.1 hPa | 0 mm | - | 0 W/m² | - |
| 1778032121 | 16.11° C | 71% | 1007 hPa | 0 mm | - | 0 W/m² | - |
| 1778031818 | 15.56° C | 73% | 1007.1 hPa | 0 mm | - | 0 W/m² | - |
| 1778031515 | 15.56° C | 70% | 1007.1 hPa | 0 mm | - | 0 W/m² | - |
| 1778031212 | 15.56° C | 71% | 1007.1 hPa | 0 mm | - | 0 W/m² | - |
| 1778030909 | 16.11° C | 71% | 1007.2 hPa | 0 mm | - | 0 W/m² | - |
| 1778030606 | 16.67° C | 68% | 1007.1 hPa | 0 mm | - | 0 W/m² | - |
| 1778030303 | 16.67° C | 68% | 1007.1 hPa | 0 mm | - | 0 W/m² | - |
| 1778030000 | 16.67° C | 68% | 1007 hPa | 0 mm | - | 0 W/m² | - |
| 1778029697 | 17.22° C | 64% | 1006.9 hPa | 0 mm | - | 0 W/m² | - |
| 1778029395 | 17.78° C | 62% | 1006.7 hPa | 0 mm | - | 0 W/m² | - |
| 1778029092 | 18.33° C | 63% | 1007 hPa | 0 mm | - | 0 W/m² | - |
| 1778028788 | 18.33° C | 64% | 1006.9 hPa | 0 mm | - | 0 W/m² | - |
| 1778028484 | 18.89° C | 60% | 1007 hPa | 0 mm | - | 0 W/m² | - |
| 1778028183 | 18.33° C | 62% | 1007 hPa | 0 mm | - | 0 W/m² | - |
| 1778027878 | 18.89° C | 61% | 1006.8 hPa | 0 mm | - | 0 W/m² | - |
| 1778027575 | 18.89° C | 59% | 1007.1 hPa | 0 mm | - | 0 W/m² | - |
| 1778027271 | 18.89° C | 60% | 1006.9 hPa | 0 mm | - | 0 W/m² | - |
| 1778026967 | 18.89° C | 61% | 1006.9 hPa | 0 mm | - | 1 W/m² | - |
| 1778026663 | 18.89° C | 64% | 1006.8 hPa | 0 mm | - | 1 W/m² | - |
| 1778026361 | 18.89° C | 64% | 1006.9 hPa | 0 mm | - | 1 W/m² | - |
| 1778026057 | 18.89° C | 63% | 1007.1 hPa | 0 mm | - | 2 W/m² | - |
| 1778025755 | 18.89° C | 64% | 1007 hPa | 0 mm | - | 4 W/m² | - |
| 1778025452 | 18.89° C | 64% | 1007 hPa | 0 mm | - | 5 W/m² | - |
| 1778025150 | 18.89° C | 63% | 1006.6 hPa | 0 mm | - | 8 W/m² | - |
* Rain latest hour (hover to see other rain measurements)
** Current wind speed in m/s (hover to see current wind gust speed)